Saint Columbans, Nebraska
Current Conditions -  °F | °C
As of 6:58 PM on Monday 20 Oct 2014 (Local Time) from KOFF Reporting Station
Clear Clear  
Wind Chill: 13°   Ceiling: Unl
Heat Index: 13°   Visibility: 9mi
Dew Point: 10°   Wind: 1mph
Humidity: 82%   Direction: 250°WSW
Pressure: 30.04"   Gusts: NA
Location:  41.1°N, 95.87°W
Report Text: KOFF 202358Z AUTO 25001KT 9SM CLR 13/10 A3004 RMK AO2 SLP179 T01250095 10222 20125 55000
Loading
Personal Weather Stations






























Interactive Weather Map
Tropical Storm Tracking
New forecast layout! Learn more

10-Day Weather Forecast

Advertisements
Track Severe Weather on mobile